Time;durP1;ratioP1;P1;durP2;ratioP2;P2;SDS_P1;SDS_P2;PMS_P1;PMS_P2;Temp;Humidity;BMP_temperature;BMP_pressure;BME280_temperature;BME280_humidity;BME280_pressure;Samples;Min_cycle;Max_cycle;Signal;HPM_P1;HPM_P2
2022/12/18 00:02:03;;;;;;;11.83;11.40;;;18.50;45.80;;;;;;4994968;28;20473;-58
2022/12/18 00:04:30;;;;;;;11.30;10.90;;;18.50;45.80;;;;;;4994904;28;20490;-57
2022/12/18 00:06:57;;;;;;;11.27;10.80;;;18.40;45.70;;;;;;4994650;28;20947;-58
2022/12/18 00:09:25;;;;;;;10.93;10.33;;;18.40;45.70;;;;;;4994731;28;21038;-59
2022/12/18 00:11:52;;;;;;;10.70;10.20;;;18.40;45.60;;;;;;4994743;28;20467;-55
2022/12/18 00:14:19;;;;;;;11.47;10.97;;;18.40;45.60;;;;;;4994820;28;21020;-57
2022/12/18 00:16:47;;;;;;;11.60;11.00;;;18.40;45.60;;;;;;4994629;28;20534;-55
2022/12/18 00:19:16;;;;;;;10.77;10.37;;;18.40;45.60;;;;;;4994585;28;20447;-59
2022/12/18 00:21:44;;;;;;;11.23;10.63;;;18.30;46.10;;;;;;4994865;28;20494;-55
2022/12/18 00:24:11;;;;;;;11.20;10.70;;;18.30;45.60;;;;;;4994613;28;20493;-55
2022/12/18 00:26:40;;;;;;;10.67;10.17;;;18.30;46.10;;;;;;4994570;28;20541;-55
2022/12/18 00:29:09;;;;;;;10.50;10.10;;;18.30;45.50;;;;;;4994239;28;20443;-54
2022/12/18 00:31:35;;;;;;;10.07;9.63;;;18.30;45.50;;;;;;4994444;28;20471;-58
2022/12/18 00:34:04;;;;;;;9.90;9.40;;;18.20;45.40;;;;;;4994413;28;20451;-55
2022/12/18 00:36:33;;;;;;;10.30;9.90;;;18.20;45.50;;;;;;4993799;28;20990;-56
2022/12/18 00:39:01;;;;;;;10.93;10.33;;;18.20;45.50;;;;;;4993677;28;20454;-56
2022/12/18 00:44:15;;;;;;;10.47;10.10;;;18.20;45.50;;;;;;4994643;28;20474;-53
2022/12/18 00:46:42;;;;;;;9.73;9.43;;;18.20;45.50;;;;;;4994306;28;20443;-56
2022/12/18 00:49:10;;;;;;;9.57;9.27;;;18.10;45.40;;;;;;4994851;28;20895;-55
2022/12/18 00:51:37;;;;;;;9.97;9.57;;;18.10;45.40;;;;;;4994290;28;20485;-57
2022/12/18 00:54:04;;;;;;;9.53;9.23;;;18.10;45.40;;;;;;4994477;28;20445;-56
2022/12/18 00:56:31;;;;;;;10.10;9.70;;;18.10;45.40;;;;;;4994427;28;20454;-55
2022/12/18 00:58:58;;;;;;;9.67;9.27;;;18.10;45.40;;;;;;4994258;28;20453;-58
2022/12/18 01:01:25;;;;;;;10.33;9.93;;;18.10;45.40;;;;;;4994381;28;20466;-57
2022/12/18 01:03:52;;;;;;;9.97;9.57;;;18.00;45.40;;;;;;4994760;28;20501;-54
2022/12/18 01:06:20;;;;;;;8.50;8.30;;;18.00;45.30;;;;;;4994143;28;20546;-59
2022/12/18 01:08:46;;;;;;;9.63;9.23;;;18.00;45.40;;;;;;4994531;28;20450;-57
2022/12/18 01:11:16;;;;;;;9.60;9.20;;;17.90;45.40;;;;;;4994626;28;20565;-54
2022/12/18 01:13:43;;;;;;;10.17;9.77;;;17.90;45.40;;;;;;4994155;28;20443;-56
2022/12/18 01:16:12;;;;;;;10.37;9.87;;;17.90;45.40;;;;;;4994074;28;20533;-57
2022/12/18 01:18:39;;;;;;;10.10;9.70;;;17.90;45.40;;;;;;4994404;28;20446;-56
2022/12/18 01:21:07;;;;;;;9.70;9.30;;;17.90;45.50;;;;;;4994084;28;20777;-56
2022/12/18 01:23:36;;;;;;;9.73;9.33;;;17.80;45.50;;;;;;4993577;28;20451;-56
2022/12/18 01:26:07;;;;;;;9.73;9.33;;;17.90;45.50;;;;;;4994263;28;20453;-57
2022/12/18 01:28:34;;;;;;;9.93;9.53;;;17.80;45.50;;;;;;4994315;28;20797;-54
2022/12/18 01:31:11;;;;;;;10.10;9.60;;;17.80;45.50;;;;;;4993544;28;20754;-59
2022/12/18 01:33:38;;;;;;;10.00;9.50;;;17.80;45.60;;;;;;4993986;28;20447;-56
2022/12/18 01:36:05;;;;;;;9.43;9.13;;;17.70;45.50;;;;;;4993687;28;20447;-58
2022/12/18 01:38:32;;;;;;;9.90;9.50;;;17.70;45.60;;;;;;4993471;28;20469;-56
2022/12/18 01:41:02;;;;;;;10.87;10.27;;;17.70;45.60;;;;;;4993344;28;20470;-58
2022/12/18 01:43:43;;;;;;;9.90;9.40;;;17.70;45.60;;;;;;4993525;28;20449;-57
2022/12/18 01:46:10;;;;;;;9.37;8.97;;;17.70;45.60;;;;;;4993582;28;20825;-58
2022/12/18 01:48:37;;;;;;;9.87;9.47;;;17.70;45.60;;;;;;4992931;28;20482;-58
2022/12/18 01:51:04;;;;;;;11.00;10.40;;;17.60;45.60;;;;;;4993389;28;20485;-57
2022/12/18 01:53:31;;;;;;;10.80;10.40;;;17.60;45.60;;;;;;4993102;28;20847;-56
2022/12/18 01:56:01;;;;;;;10.20;9.80;;;17.60;45.60;;;;;;4992908;28;20530;-56
2022/12/18 01:58:33;;;;;;;10.90;10.40;;;17.60;45.70;;;;;;4993016;28;20449;-58
2022/12/18 02:01:00;;;;;;;10.30;9.80;;;17.60;45.50;;;;;;4992342;28;20467;-54
2022/12/18 02:03:27;;;;;;;10.70;10.10;;;17.50;45.40;;;;;;4992754;28;20451;-57
2022/12/18 02:06:02;;;;;;;9.70;9.40;;;17.60;45.50;;;;;;4992583;28;20574;-58
2022/12/18 02:08:35;;;;;;;10.50;10.10;;;17.50;45.40;;;;;;4992803;28;20446;-54
2022/12/18 02:11:09;;;;;;;10.47;10.07;;;17.50;45.40;;;;;;4992248;28;20462;-58
2022/12/18 02:13:44;;;;;;;10.00;9.70;;;17.50;45.30;;;;;;4992894;28;20958;-58
2022/12/18 02:16:19;;;;;;;10.60;10.20;;;17.50;45.30;;;;;;4992711;28;20794;-58
2022/12/18 02:18:50;;;;;;;11.03;10.60;;;17.50;45.30;;;;;;4992296;28;20458;-58
2022/12/18 02:21:28;;;;;;;9.87;9.47;;;17.50;45.30;;;;;;4992058;28;20477;-58
2022/12/18 02:24:01;;;;;;;9.83;9.47;;;17.50;45.30;;;;;;4992471;28;20457;-56
2022/12/18 02:26:34;;;;;;;10.37;9.97;;;17.50;45.30;;;;;;4992477;28;20927;-57
2022/12/18 02:29:05;;;;;;;9.50;9.10;;;17.40;45.20;;;;;;4992345;28;20457;-56
2022/12/18 02:31:38;;;;;;;10.30;9.83;;;17.50;45.30;;;;;;4992117;28;20497;-57
2022/12/18 02:34:08;;;;;;;9.87;9.47;;;17.40;45.10;;;;;;4992326;28;20803;-55
2022/12/18 02:36:38;;;;;;;10.00;9.60;;;17.40;45.10;;;;;;4992269;28;20449;-56
2022/12/18 02:39:08;;;;;;;10.13;9.70;;;17.40;45.10;;;;;;4992202;28;20453;-58
2022/12/18 02:41:36;;;;;;;10.30;9.90;;;17.40;45.10;;;;;;4992169;28;20463;-57
2022/12/18 02:44:09;;;;;;;9.80;9.50;;;17.40;45.10;;;;;;4992145;28;20450;-56
2022/12/18 02:46:39;;;;;;;9.93;9.53;;;17.40;45.10;;;;;;4992270;28;20454;-58
2022/12/18 02:49:27;;;;;;;9.80;9.50;;;17.40;45.10;;;;;;4992095;28;20548;-58
2022/12/18 02:52:01;;;;;;;10.53;10.03;;;17.30;45.00;;;;;;4991986;28;20482;-58
2022/12/18 02:54:40;;;;;;;9.17;8.87;;;17.30;45.00;;;;;;4991941;28;20977;-59
2022/12/18 02:57:16;;;;;;;9.70;9.40;;;17.30;45.00;;;;;;4992733;28;20450;-58
2022/12/18 02:59:50;;;;;;;9.30;9.00;;;17.30;45.10;;;;;;4992038;28;20466;-58
2022/12/18 03:02:22;;;;;;;9.10;8.80;;;17.30;45.10;;;;;;4996645;28;20954;-60
2022/12/18 03:04:54;;;;;;;9.70;9.40;;;17.30;45.10;;;;;;4996814;28;20490;-59
2022/12/18 03:07:25;;;;;;;10.00;9.60;;;17.30;45.10;;;;;;4996751;28;20454;-59
2022/12/18 03:09:54;;;;;;;10.53;10.13;;;17.30;45.10;;;;;;4996882;28;20451;-59
2022/12/18 03:12:29;;;;;;;9.97;9.50;;;17.30;45.10;;;;;;4997294;28;20951;-59
2022/12/18 03:15:00;;;;;;;9.50;9.13;;;17.30;45.20;;;;;;4996190;28;20450;-55
2022/12/18 03:17:31;;;;;;;10.00;9.53;;;17.20;45.10;;;;;;4995869;28;20442;-56
2022/12/18 03:20:03;;;;;;;10.47;10.07;;;17.30;45.80;;;;;;4995703;28;20464;-57
2022/12/18 03:22:32;;;;;;;9.47;9.07;;;17.20;45.10;;;;;;4995855;28;20465;-53
2022/12/18 03:25:03;;;;;;;9.57;9.17;;;17.20;45.10;;;;;;4995443;28;20493;-56
2022/12/18 03:27:34;;;;;;;9.20;8.80;;;17.20;45.20;;;;;;4995821;28;20446;-55
2022/12/18 03:30:07;;;;;;;9.40;9.10;;;17.20;45.30;;;;;;4995324;28;20974;-54
2022/12/18 03:32:40;;;;;;;9.40;9.00;;;17.20;45.20;;;;;;4995680;28;20443;-55
2022/12/18 03:35:09;;;;;;;9.93;9.40;;;17.20;45.20;;;;;;4995417;28;20486;-57
2022/12/18 03:37:36;;;;;;;9.40;9.10;;;17.10;45.20;;;;;;4995519;28;20442;-56
2022/12/18 03:40:03;;;;;;;9.07;8.77;;;17.10;45.20;;;;;;4995111;28;20477;-57
2022/12/18 03:42:38;;;;;;;9.53;9.13;;;17.10;45.20;;;;;;4995427;28;20450;-56
2022/12/18 03:45:11;;;;;;;10.20;9.70;;;17.10;45.20;;;;;;4995093;28;20481;-54
2022/12/18 03:47:45;;;;;;;9.60;9.20;;;17.10;45.20;;;;;;4995303;28;20451;-55
2022/12/18 03:50:17;;;;;;;9.80;9.30;;;17.10;45.20;;;;;;4995137;28;20473;-54
2022/12/18 03:52:50;;;;;;;9.53;9.23;;;17.00;45.00;;;;;;4995461;28;20446;-54
2022/12/18 03:55:19;;;;;;;9.37;9.07;;;17.00;45.00;;;;;;4995012;28;20439;-55
2022/12/18 03:57:49;;;;;;;9.33;9.03;;;17.10;45.20;;;;;;4994904;28;20447;-56
2022/12/18 04:00:19;;;;;;;8.87;8.57;;;17.00;45.10;;;;;;4994899;28;20466;-56
2022/12/18 04:02:49;;;;;;;11.13;10.73;;;17.00;45.10;;;;;;4994970;28;20513;-56
2022/12/18 04:05:17;;;;;;;9.47;9.17;;;17.00;45.00;;;;;;4995087;28;20478;-57
2022/12/18 04:07:47;;;;;;;10.30;9.90;;;17.00;45.00;;;;;;4994597;28;20443;-57
2022/12/18 04:10:15;;;;;;;9.90;9.40;;;17.00;45.00;;;;;;4994721;28;20469;-57
2022/12/18 04:12:43;;;;;;;10.93;10.53;;;17.00;45.00;;;;;;4994593;28;20534;-54
2022/12/18 04:15:13;;;;;;;9.63;9.33;;;17.00;45.00;;;;;;4994928;28;21062;-56
2022/12/18 04:17:42;;;;;;;10.03;9.60;;;17.00;45.00;;;;;;4994767;28;20533;-56
2022/12/18 04:20:10;;;;;;;9.83;9.43;;;17.00;45.00;;;;;;4994720;28;20825;-56
2022/12/18 04:22:37;;;;;;;9.80;9.40;;;17.00;45.00;;;;;;4994717;28;20453;-53
2022/12/18 04:25:04;;;;;;;10.03;9.63;;;17.00;45.00;;;;;;4994435;28;20482;-54
2022/12/18 04:27:31;;;;;;;9.57;9.27;;;17.00;45.00;;;;;;4994847;28;20458;-57
2022/12/18 04:29:58;;;;;;;9.23;8.93;;;16.90;45.00;;;;;;4994236;28;20495;-59
2022/12/18 04:32:26;;;;;;;9.30;8.87;;;16.90;45.00;;;;;;4994226;28;21013;-54
2022/12/18 04:34:53;;;;;;;9.07;8.77;;;17.00;45.00;;;;;;4994474;28;20530;-58
2022/12/18 04:37:20;;;;;;;10.77;10.30;;;16.90;45.00;;;;;;4994295;28;20538;-57
2022/12/18 04:39:46;;;;;;;8.83;8.53;;;16.90;45.00;;;;;;4994340;28;20538;-58
2022/12/18 04:42:13;;;;;;;9.10;8.80;;;16.90;45.00;;;;;;4994451;28;20546;-57
2022/12/18 04:44:40;;;;;;;9.27;8.97;;;16.90;45.10;;;;;;4994237;28;20443;-59
2022/12/18 04:47:07;;;;;;;9.60;9.20;;;16.90;45.00;;;;;;4994316;28;20534;-54
2022/12/18 04:49:35;;;;;;;9.67;9.37;;;16.90;45.10;;;;;;4994010;28;20509;-55
2022/12/18 04:52:03;;;;;;;9.57;9.10;;;16.90;45.10;;;;;;4994038;28;20462;-58
2022/12/18 04:54:30;;;;;;;9.23;8.90;;;16.90;45.10;;;;;;4994203;28;20470;-57
2022/12/18 04:56:57;;;;;;;9.87;9.47;;;16.90;45.10;;;;;;4993854;28;20538;-58
2022/12/18 04:59:24;;;;;;;9.50;9.20;;;16.80;45.00;;;;;;4993832;28;20447;-54
2022/12/18 05:01:50;;;;;;;8.83;8.53;;;16.80;45.00;;;;;;4993683;28;20463;-58
2022/12/18 05:04:17;;;;;;;10.10;9.70;;;16.80;45.00;;;;;;4993844;28;20458;-57
2022/12/18 05:06:45;;;;;;;9.07;8.67;;;16.80;45.00;;;;;;4994099;28;20487;-55
2022/12/18 05:09:12;;;;;;;10.13;9.73;;;16.80;45.00;;;;;;4993375;28;20838;-57
2022/12/18 05:11:39;;;;;;;10.20;9.80;;;16.80;45.00;;;;;;4993682;28;20971;-58
2022/12/18 05:14:06;;;;;;;9.30;8.90;;;16.80;45.00;;;;;;4993657;28;20534;-54
2022/12/18 05:16:33;;;;;;;8.40;8.20;;;16.80;45.10;;;;;;4993772;28;20537;-58
2022/12/18 05:19:00;;;;;;;8.97;8.67;;;16.80;45.00;;;;;;4993491;28;20818;-54
2022/12/18 05:21:27;;;;;;;9.40;9.00;;;16.80;45.10;;;;;;4993117;28;20549;-57
2022/12/18 05:23:55;;;;;;;9.27;8.87;;;16.80;45.10;;;;;;4992832;28;20821;-55
2022/12/18 05:26:22;;;;;;;9.67;9.37;;;16.70;44.90;;;;;;4993443;28;21096;-55
2022/12/18 05:28:49;;;;;;;9.90;9.47;;;16.70;45.00;;;;;;4993287;28;20556;-56
2022/12/18 05:31:15;;;;;;;8.90;8.60;;;16.70;44.90;;;;;;4993096;28;20470;-58
2022/12/18 05:33:42;;;;;;;10.20;9.70;;;16.70;44.90;;;;;;4993422;28;20534;-56
2022/12/18 05:36:11;;;;;;;9.40;9.10;;;16.70;44.90;;;;;;4993429;28;20447;-55
2022/12/18 05:38:39;;;;;;;8.93;8.63;;;16.70;44.90;;;;;;4993294;28;20478;-54
2022/12/18 05:41:09;;;;;;;9.83;9.27;;;16.70;44.80;;;;;;4993057;28;20466;-55
2022/12/18 05:43:37;;;;;;;9.27;8.87;;;16.70;44.80;;;;;;4993030;28;20546;-53
2022/12/18 05:46:06;;;;;;;9.60;9.30;;;16.70;44.80;;;;;;4992980;28;20569;-55
2022/12/18 05:48:33;;;;;;;9.80;9.40;;;16.70;44.70;;;;;;4993158;28;20455;-54
2022/12/18 05:51:06;;;;;;;9.43;9.10;;;16.60;44.70;;;;;;4992676;28;20493;-54
2022/12/18 05:53:34;;;;;;;10.20;9.77;;;16.60;44.90;;;;;;4993088;28;20447;-54
2022/12/18 05:56:02;;;;;;;9.40;9.10;;;16.60;44.90;;;;;;4992704;28;20942;-53
2022/12/18 05:58:31;;;;;;;9.67;9.37;;;16.60;45.00;;;;;;4992978;28;20910;-53
2022/12/18 06:00:58;;;;;;;10.00;9.63;;;16.60;45.00;;;;;;4992526;28;20562;-59
2022/12/18 06:03:25;;;;;;;10.10;9.70;;;16.60;45.10;;;;;;4992851;28;20451;-57
2022/12/18 06:05:52;;;;;;;9.93;9.53;;;16.60;45.10;;;;;;4992831;28;21036;-54
2022/12/18 06:08:19;;;;;;;9.60;9.20;;;16.60;45.00;;;;;;4992585;28;20814;-53
2022/12/18 06:10:52;;;;;;;9.80;9.40;;;16.60;45.00;;;;;;4992424;28;20462;-54
2022/12/18 06:13:19;;;;;;;9.63;9.33;;;16.60;45.00;;;;;;4992724;28;20473;-55
2022/12/18 06:15:48;;;;;;;9.37;9.07;;;16.60;45.00;;;;;;4992233;28;20779;-57
2022/12/18 06:18:14;;;;;;;8.80;8.40;;;16.60;44.90;;;;;;4992601;28;20454;-58
2022/12/18 06:20:41;;;;;;;9.60;9.27;;;16.60;44.90;;;;;;4992265;28;20467;-54
2022/12/18 06:23:09;;;;;;;9.50;9.10;;;16.60;44.90;;;;;;4992443;28;21321;-54
2022/12/18 06:25:38;;;;;;;9.47;9.17;;;16.60;44.90;;;;;;4992148;28;20478;-53
2022/12/18 06:28:06;;;;;;;9.80;9.50;;;16.50;44.90;;;;;;4992403;28;20533;-53
2022/12/18 06:30:33;;;;;;;10.70;10.30;;;16.50;44.80;;;;;;4992072;28;20467;-58
2022/12/18 06:33:01;;;;;;;8.73;8.43;;;16.50;44.90;;;;;;4992499;28;20482;-56
2022/12/18 06:35:28;;;;;;;9.90;9.50;;;16.50;44.90;;;;;;4992243;28;20522;-57
2022/12/18 06:37:55;;;;;;;9.23;8.93;;;16.50;44.90;;;;;;4992078;28;20443;-53
2022/12/18 06:40:21;;;;;;;9.10;8.80;;;16.50;44.90;;;;;;4992018;28;20467;-57
2022/12/18 06:42:48;;;;;;;9.27;8.93;;;16.50;44.90;;;;;;4992190;28;21033;-53
2022/12/18 06:45:16;;;;;;;10.13;9.63;;;16.50;44.80;;;;;;4992194;28;20615;-57
2022/12/18 06:47:44;;;;;;;9.53;9.17;;;16.40;44.80;;;;;;4992203;28;20537;-55
2022/12/18 06:50:12;;;;;;;9.40;9.10;;;16.40;44.80;;;;;;4991451;28;20986;-56
2022/12/18 06:52:40;;;;;;;9.50;9.10;;;16.40;44.80;;;;;;4992270;28;20447;-58
2022/12/18 06:55:11;;;;;;;9.70;9.40;;;16.40;44.80;;;;;;4992090;28;20529;-54
2022/12/18 06:57:39;;;;;;;9.70;9.40;;;16.40;44.80;;;;;;4992402;28;20443;-58
2022/12/18 07:00:07;;;;;;;10.57;10.17;;;16.40;44.90;;;;;;4991797;28;20467;-55
2022/12/18 07:02:35;;;;;;;9.67;9.27;;;16.40;44.80;;;;;;4991748;28;21005;-54
2022/12/18 07:05:02;;;;;;;9.60;9.30;;;16.40;44.90;;;;;;4992057;28;20457;-56
2022/12/18 07:07:30;;;;;;;9.20;8.90;;;16.40;44.90;;;;;;4991989;28;20853;-56
2022/12/18 07:09:57;;;;;;;9.73;9.33;;;16.30;44.70;;;;;;4991691;28;20447;-54
2022/12/18 07:12:24;;;;;;;8.60;8.30;;;16.30;44.80;;;;;;4991926;28;20443;-57
2022/12/18 07:14:50;;;;;;;9.90;9.60;;;16.40;44.80;;;;;;4991812;28;20890;-57
2022/12/18 07:17:17;;;;;;;9.27;8.97;;;16.30;44.70;;;;;;4992078;28;20526;-53
2022/12/18 07:19:44;;;;;;;10.43;9.93;;;16.30;44.70;;;;;;4991680;28;20447;-55
2022/12/18 07:22:11;;;;;;;9.93;9.47;;;16.30;44.70;;;;;;4991934;28;20450;-54
2022/12/18 07:24:39;;;;;;;8.90;8.60;;;16.40;44.80;;;;;;4991867;28;20458;-57
2022/12/18 07:27:06;;;;;;;9.20;8.87;;;16.30;44.60;;;;;;4992081;28;20894;-58
2022/12/18 07:29:33;;;;;;;9.23;8.93;;;16.40;44.70;;;;;;4991625;28;20442;-54
2022/12/18 07:32:00;;;;;;;9.27;8.97;;;16.30;44.60;;;;;;4991982;28;20558;-57
2022/12/18 07:34:27;;;;;;;9.10;8.80;;;16.30;44.50;;;;;;4991679;28;20887;-57
2022/12/18 07:36:54;;;;;;;8.73;8.43;;;16.30;44.40;;;;;;4991889;28;20849;-53
2022/12/18 07:39:21;;;;;;;8.67;8.33;;;16.30;44.50;;;;;;4991536;28;20490;-56
2022/12/18 07:42:30;;;;;;;9.40;9.10;;;16.30;44.60;;;;;;4991315;28;20550;-58
2022/12/18 07:44:36;;;;;;;9.90;9.50;;;16.30;44.70;;;;;;4991680;28;20445;-58
2022/12/18 07:47:03;;;;;;;9.87;9.57;;;16.30;44.70;;;;;;4993113;28;20496;-59
2022/12/18 07:49:30;;;;;;;10.17;9.80;;;16.30;44.70;;;;;;4995227;28;20863;-57
2022/12/18 07:51:58;;;;;;;10.40;10.00;;;16.30;44.70;;;;;;4995617;28;20490;-55
2022/12/18 07:54:25;;;;;;;9.80;9.40;;;16.30;44.60;;;;;;4995468;28;20451;-58
2022/12/18 07:56:53;;;;;;;10.17;9.87;;;16.30;44.70;;;;;;4995433;28;20960;-57
2022/12/18 07:59:20;;;;;;;9.80;9.50;;;16.30;44.60;;;;;;4994989;28;20450;-54
2022/12/18 08:01:47;;;;;;;10.10;9.80;;;16.30;44.70;;;;;;4994918;28;20550;-57
2022/12/18 08:04:14;;;;;;;9.90;9.50;;;16.30;44.60;;;;;;4994436;28;20478;-59
2022/12/18 08:06:41;;;;;;;10.67;10.27;;;16.30;44.70;;;;;;4995229;28;20486;-55
2022/12/18 08:09:08;;;;;;;9.97;9.47;;;16.30;44.60;;;;;;4994765;28;20538;-55
2022/12/18 08:11:35;;;;;;;9.43;9.13;;;16.30;44.70;;;;;;4994807;28;20545;-56
2022/12/18 08:14:04;;;;;;;10.07;9.77;;;16.30;44.70;;;;;;4995064;28;20884;-55
2022/12/18 08:16:31;;;;;;;10.53;10.13;;;16.30;44.70;;;;;;4994595;28;20451;-55
2022/12/18 08:18:58;;;;;;;10.00;9.60;;;16.30;44.70;;;;;;4994389;28;20538;-56
2022/12/18 08:21:26;;;;;;;10.57;10.17;;;16.20;44.60;;;;;;4994612;28;20514;-55
2022/12/18 08:23:55;;;;;;;10.50;10.10;;;16.30;44.70;;;;;;4994750;28;20855;-58
2022/12/18 08:26:22;;;;;;;10.20;9.90;;;16.20;44.50;;;;;;4994567;28;20497;-54
2022/12/18 08:28:49;;;;;;;10.00;9.70;;;16.20;44.50;;;;;;4993707;28;20439;-55
2022/12/18 08:31:18;;;;;;;10.13;9.83;;;16.20;44.60;;;;;;4994472;28;20549;-56
2022/12/18 08:33:45;;;;;;;10.83;10.43;;;16.20;44.60;;;;;;4994627;28;20546;-55
2022/12/18 08:36:12;;;;;;;10.30;9.90;;;16.20;44.60;;;;;;4994455;28;20501;-56
2022/12/18 08:38:39;;;;;;;9.87;9.57;;;16.20;44.60;;;;;;4994380;28;20442;-54
2022/12/18 08:41:08;;;;;;;9.93;9.63;;;16.20;44.60;;;;;;4993942;28;20974;-59
2022/12/18 08:46:22;;;;;;;10.30;10.00;;;16.20;44.60;;;;;;4994345;28;20474;-58
2022/12/18 08:48:51;;;;;;;10.13;9.73;;;16.20;44.60;;;;;;4994181;28;20453;-59
2022/12/18 08:51:18;;;;;;;10.33;9.93;;;16.10;44.50;;;;;;4993901;28;20537;-55
2022/12/18 08:53:45;;;;;;;10.50;10.10;;;16.10;44.50;;;;;;4993742;28;20447;-55
2022/12/18 08:56:13;;;;;;;9.70;9.40;;;16.10;44.50;;;;;;4994171;28;20439;-56
2022/12/18 08:58:41;;;;;;;10.13;9.73;;;16.10;44.50;;;;;;4992990;28;20546;-57
2022/12/18 09:01:09;;;;;;;10.43;10.03;;;16.10;44.60;;;;;;4993751;28;20557;-58
2022/12/18 09:03:38;;;;;;;10.40;10.00;;;16.10;44.60;;;;;;4993782;28;20450;-57
2022/12/18 09:06:05;;;;;;;10.47;10.17;;;16.10;44.60;;;;;;4993179;28;20439;-58
2022/12/18 09:08:32;;;;;;;9.60;9.30;;;16.10;44.60;;;;;;4993899;28;20453;-54
2022/12/18 09:10:59;;;;;;;10.53;10.10;;;16.10;44.60;;;;;;4993410;28;20466;-58
2022/12/18 09:13:26;;;;;;;10.50;10.10;;;16.10;44.70;;;;;;4993903;28;20537;-58
2022/12/18 09:15:55;;;;;;;10.27;9.87;;;16.10;44.60;;;;;;4993546;28;20486;-58
2022/12/18 09:18:26;;;;;;;14.17;13.67;;;16.20;44.60;;;;;;4993602;28;20947;-55
2022/12/18 09:21:01;;;;;;;13.43;12.83;;;16.30;45.80;;;;;;4993380;28;20521;-54
2022/12/18 09:23:33;;;;;;;14.67;14.17;;;16.40;46.40;;;;;;4993544;28;20468;-56
2022/12/18 09:26:06;;;;;;;13.90;13.30;;;16.50;46.20;;;;;;4993153;28;20450;-54
2022/12/18 09:28:39;;;;;;;14.43;14.03;;;16.70;46.40;;;;;;4993547;28;20449;-52
2022/12/18 09:31:13;;;;;;;14.03;13.63;;;16.90;46.40;;;;;;4993007;28;20470;-57
2022/12/18 09:33:42;;;;;;;13.20;12.77;;;17.10;46.10;;;;;;4993289;28;20456;-55
2022/12/18 09:36:18;;;;;;;16.57;15.80;;;17.30;47.00;;;;;;4989346;28;20454;-55
2022/12/18 09:38:49;;;;;;;14.10;13.30;;;17.50;47.90;;;;;;4993206;28;20493;-58
2022/12/18 09:41:33;;;;;;;13.40;13.00;;;17.70;47.60;;;;;;4993413;28;20474;-58
2022/12/18 09:44:03;;;;;;;14.27;13.67;;;17.90;47.10;;;;;;4993333;28;20454;-56
2022/12/18 09:46:33;;;;;;;14.67;14.10;;;18.00;46.60;;;;;;4992930;28;20482;-57
2022/12/18 09:49:03;;;;;;;14.23;13.73;;;18.10;45.80;;;;;;4993124;28;20935;-58
2022/12/18 09:51:37;;;;;;;14.83;14.27;;;18.20;45.70;;;;;;4992864;28;20475;-58
2022/12/18 09:54:07;;;;;;;14.50;13.90;;;18.30;46.10;;;;;;4993096;28;20809;-57
2022/12/18 09:56:39;;;;;;;14.10;13.50;;;18.50;45.70;;;;;;4993032;28;20443;-59
2022/12/18 09:59:07;;;;;;;14.60;14.10;;;18.60;45.60;;;;;;4992576;28;20447;-55
2022/12/18 10:01:34;;;;;;;14.37;13.70;;;18.70;44.90;;;;;;4992997;28;20475;-52
2022/12/18 10:04:01;;;;;;;13.10;12.60;;;18.80;44.40;;;;;;4992791;28;20461;-53
2022/12/18 10:06:43;;;;;;;14.90;14.30;;;18.80;43.90;;;;;;4992526;28;20462;-54
2022/12/18 10:09:18;;;;;;;14.63;14.00;;;19.00;44.40;;;;;;4992455;28;20450;-59
2022/12/18 10:11:55;;;;;;;15.00;14.40;;;19.20;44.40;;;;;;4992097;28;20501;-56
2022/12/18 10:14:28;;;;;;;14.47;13.87;;;19.30;43.70;;;;;;4992385;28;20522;-55
2022/12/18 10:17:02;;;;;;;13.20;12.60;;;19.40;43.60;;;;;;4992397;28;20439;-56
2022/12/18 10:19:48;;;;;;;13.00;12.47;;;19.40;43.20;;;;;;4992582;28;20868;-55
2022/12/18 10:22:26;;;;;;;13.27;12.77;;;19.60;43.10;;;;;;4992820;28;20531;-56
2022/12/18 10:24:58;;;;;;;13.70;13.20;;;19.70;43.00;;;;;;4992850;28;20813;-57
2022/12/18 10:27:27;;;;;;;12.73;12.43;;;19.80;42.80;;;;;;4992527;28;20485;-59
2022/12/18 10:29:53;;;;;;;13.17;12.77;;;19.80;42.80;;;;;;4992877;28;20964;-55
2022/12/18 10:32:23;;;;;;;13.70;13.07;;;20.00;42.90;;;;;;4992891;28;20451;-60
2022/12/18 10:34:51;;;;;;;14.23;13.73;;;20.00;42.40;;;;;;4992400;28;20455;-55
2022/12/18 10:37:22;;;;;;;13.07;12.67;;;20.10;42.50;;;;;;4991931;28;20482;-52
2022/12/18 10:40:08;;;;;;;12.73;12.33;;;20.00;41.90;;;;;;4989525;28;20959;-57
2022/12/18 10:42:35;;;;;;;11.70;10.93;;;20.10;41.90;;;;;;4993214;28;20530;-60
2022/12/18 10:45:04;;;;;;;7.40;7.00;;;20.10;42.00;;;;;;4992744;28;20533;-56
2022/12/18 10:47:31;;;;;;;8.17;7.70;;;20.20;41.90;;;;;;4992971;28;20562;-58
2022/12/18 10:49:58;;;;;;;8.13;7.73;;;20.10;41.60;;;;;;4992333;28;20458;-59
2022/12/18 10:52:28;;;;;;;7.10;6.80;;;20.00;40.70;;;;;;4992338;28;20479;-60
2022/12/18 10:54:58;;;;;;;7.80;7.40;;;19.90;39.60;;;;;;4992316;28;20542;-59
2022/12/18 10:57:35;;;;;;;8.00;7.50;;;19.90;40.40;;;;;;4991663;28;20458;-56
2022/12/18 11:00:24;;;;;;;7.57;7.27;;;19.90;41.40;;;;;;4992308;28;20484;-57
2022/12/18 11:02:52;;;;;;;7.13;6.83;;;20.00;40.90;;;;;;4992870;28;20954;-59
2022/12/18 11:05:30;;;;;;;7.83;7.43;;;19.90;40.90;;;;;;4992484;28;20461;-60
2022/12/18 11:08:00;;;;;;;7.50;7.20;;;20.00;42.30;;;;;;4992345;28;20485;-58
2022/12/18 11:10:31;;;;;;;7.80;7.50;;;20.10;41.30;;;;;;4992630;28;20455;-60
2022/12/18 11:13:10;;;;;;;8.10;7.70;;;20.10;41.60;;;;;;4992895;28;20443;-57
2022/12/18 11:15:40;;;;;;;13.10;12.10;;;20.10;41.40;;;;;;4992906;28;20440;-64
2022/12/18 11:18:18;;;;;;;12.60;11.87;;;20.20;42.10;;;;;;4992368;28;20206;-62
2022/12/18 11:20:52;;;;;;;12.00;11.50;;;20.20;41.30;;;;;;4992011;28;20993;-64
2022/12/18 11:23:23;;;;;;;12.63;12.13;;;20.20;41.10;;;;;;4996170;28;20965;-56
2022/12/18 11:26:02;;;;;;;13.10;12.60;;;20.20;42.20;;;;;;4996363;28;20450;-51
2022/12/18 11:28:41;;;;;;;12.43;11.93;;;20.30;41.90;;;;;;4997032;28;20482;-62
2022/12/18 11:31:18;;;;;;;14.70;13.67;;;20.30;42.20;;;;;;4996502;28;20469;-58
2022/12/18 11:33:52;;;;;;;12.80;12.30;;;20.40;42.10;;;;;;4996009;28;20458;-58
2022/12/18 11:36:21;;;;;;;13.00;12.50;;;20.40;41.20;;;;;;4996690;28;20453;-62
2022/12/18 11:38:52;;;;;;;13.10;12.50;;;20.30;41.70;;;;;;4996213;28;20545;-56
2022/12/18 11:42:08;;;;;;;13.37;12.87;;;20.30;41.70;;;;;;4996089;28;20581;-62
2022/12/18 11:44:24;;;;;;;13.63;12.93;;;20.40;42.20;;;;;;4997130;28;20453;-67
2022/12/18 11:46:56;;;;;;;12.97;12.47;;;20.30;42.10;;;;;;4998892;28;20884;-66
2022/12/18 11:49:27;;;;;;;13.10;12.60;;;20.40;41.90;;;;;;4996555;28;20451;-66
2022/12/18 11:51:59;;;;;;;13.80;13.10;;;20.50;41.60;;;;;;4996574;28;20484;-63
2022/12/18 11:54:27;;;;;;;13.73;13.17;;;20.50;41.30;;;;;;4996448;28;20450;-65
2022/12/18 11:56:59;;;;;;;13.40;12.80;;;20.60;41.50;;;;;;4996077;28;20454;-65
2022/12/18 11:59:35;;;;;;;13.23;12.63;;;20.60;41.20;;;;;;4996181;28;20451;-65
2022/12/18 12:02:17;;;;;;;14.57;14.00;;;20.60;41.10;;;;;;4995959;28;20545;-65
2022/12/18 12:05:01;;;;;;;14.10;13.60;;;20.70;41.50;;;;;;4995374;28;20462;-65
2022/12/18 12:07:39;;;;;;;13.30;12.80;;;20.70;41.30;;;;;;4995571;28;20857;-61
2022/12/18 12:10:19;;;;;;;13.37;12.87;;;20.70;41.10;;;;;;4994757;28;20529;-67
2022/12/18 12:13:03;;;;;;;14.27;13.67;;;20.70;41.30;;;;;;4995359;28;20485;-55
2022/12/18 12:15:40;;;;;;;14.37;13.87;;;20.70;41.90;;;;;;4995232;28;20438;-62
2022/12/18 12:18:19;;;;;;;13.67;13.17;;;20.70;42.10;;;;;;4995517;28;20506;-62
2022/12/18 12:20:54;;;;;;;11.90;11.50;;;20.60;41.10;;;;;;4994389;28;20472;-58
2022/12/18 12:23:30;;;;;;;11.20;10.80;;;20.70;41.80;;;;;;4995757;28;20446;-64
2022/12/18 12:26:05;;;;;;;11.73;11.33;;;20.80;41.30;;;;;;4994804;28;20912;-59
2022/12/18 12:28:59;;;;;;;11.27;10.77;;;21.00;41.50;;;;;;4994537;28;20878;-58
2022/12/18 12:31:42;;;;;;;10.60;10.20;;;21.00;41.40;;;;;;4994388;28;20886;-57
2022/12/18 12:34:17;;;;;;;11.80;11.30;;;20.80;40.50;;;;;;4994780;28;20550;-59
2022/12/18 12:37:01;;;;;;;10.87;10.37;;;20.70;40.60;;;;;;4994904;28;20452;-57
2022/12/18 12:39:31;;;;;;;10.80;10.40;;;20.70;40.90;;;;;;4994776;28;20857;-62
2022/12/18 12:44:49;;;;;;;13.20;12.23;;;20.70;44.20;;;;;;4994481;28;20446;-66
2022/12/18 12:47:21;;;;;;;14.70;13.77;;;20.80;43.00;;;;;;4994320;28;20453;-66
2022/12/18 12:49:49;;;;;;;19.60;17.70;;;21.00;42.90;;;;;;4994165;28;20862;-67
2022/12/18 12:52:27;;;;;;;25.33;21.60;;;21.10;42.80;;;;;;4994927;28;20447;-65
2022/12/18 12:54:55;;;;;;;32.30;29.10;;;21.20;42.50;;;;;;4994506;28;20443;-65
2022/12/18 12:57:32;;;;;;;37.03;30.97;;;21.30;41.70;;;;;;4994463;28;20453;-66
2022/12/18 13:00:04;;;;;;;37.37;33.80;;;21.40;41.60;;;;;;4995180;28;20442;-67
2022/12/18 13:02:36;;;;;;;36.53;32.07;;;21.40;41.60;;;;;;4995024;28;20451;-67